Data for 06/26/2010

Time Sea-Level Adjusted Pressure Absolute Pressure Temperature Relative Humidity Dew Point   
(mb) (inHg) (mb) (inHg) (C) (F) (%) (C) (F)
00:05 1018 30.06 848 25.04 12.5 54.5 88 10.5 50.9
00:10 1018 30.06 848 25.04 12.3 54.1 87 10.1 50.2
00:15 1018 30.06 848 25.04 12.3 54.1 86 10.1 50.2
00:20 1018 30.06 848 25.04 12.6 54.8 85 10.3 50.5
00:25 1018 30.06 848 25.04 12.8 55 85 10.3 50.5
00:30 1018 30.06 848 25.04 12.6 54.6 86 10.3 50.6
00:35 1018 30.06 848 25.04 12.3 54.2 88 10.3 50.6
00:40 1018 30.06 848 25.04 12.2 54 88 10.3 50.6
00:45 1019 30.09 848 25.04 12.4 54.3 88 10.4 50.7
00:50 1019 30.09 848 25.04 12.4 54.4 87 10.4 50.7
00:55 1019 30.09 848 25.04 12.5 54.5 86 10.3 50.5
01:00 1019 30.09 848 25.04 12.6 54.6 86 10.3 50.5
01:05 1019 30.09 848 25.04 12.7 54.9 86 10.4 50.7
01:10 1019 30.09 848 25.04 12.8 55.1 86 10.5 50.9
01:15 1019 30.09 848 25.04 12.7 54.9 88 10.8 51.4
01:20 1019 30.09 848 25.04 12.5 54.5 89 10.7 51.3
01:25 1019 30.09 848 25.04 12.4 54.3 89 10.7 51.2
01:30 1019 30.09 848 25.04 12.4 54.3 89 10.7 51.3
01:35 1019 30.09 848 25.04 12.4 54.3 90 10.8 51.4
01:40 1018 30.06 848 25.04 12.3 54.1 90 10.7 51.3
01:45 1018 30.06 847 25.01 12.1 53.7 91 10.6 51.1
01:50 1018 30.06 847 25.01 12 53.5 90 10.4 50.7
01:55 1018 30.06 847 25.01 12 53.6 90 10.5 50.9
02:00 1018 30.06 847 25.01 12.1 53.9 90 10.6 51.1
02:05 1018 30.06 847 25.01 12.2 54 90 10.6 51
02:10 1018 30.06 847 25.01 12.1 53.8 90 10.5 50.9
02:15 1018 30.06 847 25.01 12.1 53.8 89 10.4 50.7
02:20 1018 30.06 847 25.01 12 53.7 89 10.3 50.5
02:25 1018 30.06 847 25.01 12 53.6 89 10.2 50.4
02:30 1018 30.06 847 25.01 11.9 53.5 90 10.3 50.6
02:35 1018 30.06 847 25.01 12 53.5 89 10.2 50.4
02:40 1018 30.06 847 25.01 12 53.5 89 10.2 50.4
02:45 1018 30.06 847 25.01 12 53.5 90 10.3 50.6
02:50 1018 30.06 848 25.04 12 53.5 90 10.3 50.6
02:55 1018 30.06 848 25.04 11.8 53.3 91 10.4 50.6
03:00 1018 30.06 848 25.04 11.7 53.1 91 10.3 50.6
03:05 1018 30.06 847 25.01 11.7 53.1 90 10.2 50.3
03:10 1018 30.06 847 25.01 12 53.6 85 9.6 49.3
03:15 1018 30.06 847 25.01 12.4 54.3 85 10 49.9
03:20 1018 30.06 847 25.01 12.4 54.3 86 10.1 50.1
03:25 1018 30.06 847 25.01 12.3 54.2 87 10.2 50.3
03:30 1018 30.06 847 25.01 12.2 54 87 10.1 50.2
03:35 1018 30.06 847 25.01 12.3 54.1 87 10.1 50.2
03:40 1018 30.06 848 25.04 12.2 53.9 88 10.2 50.3
03:45 1019 30.09 848 25.04 12.1 53.8 86 9.9 49.8
03:50 1019 30.09 848 25.04 12.2 53.9 85 9.8 49.6
03:55 1019 30.09 848 25.04 12.2 53.9 85 9.8 49.6
04:00 1019 30.09 848 25.04 12.3 54.2 84 9.7 49.5
04:05 1018 30.06 848 25.04 12.4 54.4 86 10.1 50.2
04:10 1018 30.06 848 25.04 12.4 54.3 87 10.2 50.4
04:15 1018 30.06 848 25.04 12.1 53.7 89 10.4 50.7
04:20 1018 30.06 848 25.04 11.7 53 90 10.2 50.3
04:25 1018 30.06 848 25.04 11.6 52.9 90 10.1 50.2
04:30 1018 30.06 847 25.01 11.6 52.9 91 10.2 50.4
04:35 1018 30.06 847 25.01 11.6 52.9 91 10.2 50.3
04:40 1018 30.06 847 25.01 11.5 52.7 92 10.3 50.5
04:45 1018 30.06 847 25.01 11.3 52.4 93 10.2 50.3
04:50 1018 30.06 847 25.01 11.3 52.4 92 10.1 50.2
04:55 1018 30.06 847 25.01 11.4 52.6 92 10.2 50.3
05:00 1018 30.06 847 25.01 11.5 52.7 91 10.1 50.1
05:05 1018 30.06 847 25.01 11.8 53.2 89 10 49.9
05:10 1018 30.06 847 25.01 12 53.6 88 10.1 50.2
05:15 1018 30.06 847 25.01 12.1 53.8 89 10.3 50.5
05:20 1018 30.06 847 25.01 12 53.7 89 10.4 50.7
05:25 1018 30.06 848 25.04 12 53.5 90 10.4 50.7
05:30 1018 30.06 848 25.04 12 53.5 90 10.4 50.7
05:35 1018 30.06 848 25.04 12 53.6 88 10 50
05:40 1019 30.09 848 25.04 12.2 53.9 87 10.1 50.1
05:45 1019 30.09 848 25.04 12.3 54.1 86 10 50.1
05:50 1019 30.09 848 25.04 12.4 54.2 85 10 49.9
05:55 1019 30.09 848 25.04 12.4 54.3 85 10 50
06:00 1019 30.09 848 25.04 12.3 54.2 87 10.2 50.4
06:05 1019 30.09 848 25.04 12.3 54.2 86 10.1 50.2
06:10 1019 30.09 848 25.04 12.4 54.2 87 10.2 50.4
06:15 1019 30.09 848 25.04 12.3 54.2 88 10.4 50.8
06:20 1019 30.09 848 25.04 12.1 53.8 90 10.5 50.9
06:25 1019 30.09 848 25.04 11.9 53.4 90 10.3 50.5
06:30 1019 30.09 848 25.04 12.2 53.9 87 10.2 50.3
06:35 1019 30.09 848 25.04 12.3 54.2 86 10 50
06:40 1019 30.09 848 25.04 12.5 54.4 83 9.7 49.4
06:45 1019 30.09 848 25.04 12.5 54.6 84 9.9 49.9
06:50 1019 30.09 848 25.04 12.5 54.4 87 10.3 50.5
06:55 1019 30.09 848 25.04 12.3 54.2 87 10.3 50.5
07:00 1019 30.09 848 25.04 12.3 54.1 87 10.2 50.4
07:05 1019 30.09 848 25.04 12.3 54.1 86 10 50
07:10 1019 30.09 848 25.04 12.3 54.1 86 9.9 49.9
07:15 1019 30.09 848 25.04 12.3 54.2 86 10 50
07:20 1019 30.09 848 25.04 12.3 54.2 87 10.2 50.3
07:25 1019 30.09 848 25.04 12.3 54.1 86 10 50.1
07:30 1019 30.09 848 25.04 12.3 54.1 85 9.8 49.7
07:35 1019 30.09 848 25.04 12.3 54.2 85 9.9 49.8
07:40 1019 30.09 848 25.04 12.5 54.5 85 10 50
07:45 1019 30.09 848 25.04 12.6 54.7 83 9.9 49.7
07:50 1019 30.09 848 25.04 12.9 55.2 81 9.8 49.7
07:55 1019 30.09 848 25.04 14.2 57.5 79 10.6 51.1
08:00 1019 30.09 848 25.04 14.5 58.2 72 9.6 49.3
08:05 1019 30.09 848 25.04 14.7 58.4 73 10 50
08:10 1019 30.09 848 25.04 15.5 59.9 67 9.4 49
08:15 1019 30.09 848 25.04 15.1 59.1 71 10 50
08:20 1019 30.09 848 25.04 15.4 59.8 68 9.7 49.4
08:25 1019 30.09 849 25.07 16.2 61.1 67 10.2 50.3
08:30 1019 30.09 849 25.07 16.5 61.7 65 10 49.9
08:35 1019 30.09 849 25.07 16.6 62 64 9.8 49.6
08:40 1019 30.09 849 25.07 16.8 62.2 66 10.4 50.7
08:45 1019 30.09 849 25.07 16.7 62 64 9.9 49.8
08:50 1019 30.09 849 25.07 15.7 60.3 66 9.5 49.1
08:55 1020 30.12 849 25.07 16 60.9 64 9.4 48.9
09:00 1020 30.12 849 25.07 16.6 61.9 63 9.6 49.2
09:05 1020 30.12 849 25.07 16.6 61.8 63 9.6 49.2
09:10 1020 30.12 849 25.07 17 62.6 62 9.9 49.8
09:15 1020 30.12 849 25.07 17.2 62.9 62 9.8 49.7
09:20 1020 30.12 849 25.07 17.4 63.3 59 9.3 48.8
09:25 1020 30.12 849 25.07 17.6 63.7 61 10 50
09:30 1020 30.12 849 25.07 17.2 62.9 59 9.1 48.4
09:35 1020 30.12 849 25.07 17.2 62.9 59 9.2 48.6
09:40 1020 30.12 849 25.07 17.1 62.7 60 9.2 48.6
09:45 1020 30.12 849 25.07 17.6 63.7 57 9 48.2
09:50 1020 30.12 849 25.07 18.2 64.8 54 8.9 48
09:55 1020 30.12 849 25.07 18.7 65.7 53 9 48.2
10:00 1020 30.12 849 25.07 18.3 64.9 55 9.1 48.4
10:05 1020 30.12 849 25.07 17.9 64.2 58 9.7 49.5
10:10 1020 30.12 849 25.07 18 64.3 55 9 48.2
10:15 1020 30.12 849 25.07 17.5 63.6 57 9 48.2
10:20 1020 30.12 849 25.07 18.4 65 53 8.7 47.7
10:25 1020 30.12 849 25.07 19.1 66.4 54 9.6 49.4
10:30 1020 30.12 849 25.07 19.2 66.5 50 8.5 47.3
10:35 1020 30.12 849 25.07 19.3 66.7 49 8.6 47.4
10:40 1020 30.12 849 25.07 19.9 67.8 50 9.2 48.6
10:45 1020 30.12 849 25.07 20 68 49 9.1 48.3
10:50 1020 30.12 849 25.07 20 68 45 8 46.4
10:55 1020 30.12 849 25.07 19.8 67.6 46 8 46.3
11:00 1020 30.12 849 25.07 19.8 67.7 44 7.5 45.5
11:05 1020 30.12 849 25.07 20.3 68.5 45 8 46.4
11:10 1019 30.09 849 25.07 20.2 68.4 48 8.9 48
11:15 1019 30.09 849 25.07 19.3 66.8 51 9.1 48.4
11:20 1019 30.09 849 25.07 19 66.2 52 8.9 48.1
11:25 1019 30.09 849 25.07 19.3 66.7 50 8.6 47.6
11:30 1019 30.09 849 25.07 19.3 66.7 50 8.6 47.5
11:35 1019 30.09 849 25.07 19.7 67.5 41 6.2 43.2
11:40 1019 30.09 849 25.07 20.3 68.6 38 5.6 42
11:45 1019 30.09 849 25.07 20.4 68.6 40 6.4 43.6
11:50 1019 30.09 849 25.07 20.6 69.2 37 5.6 42
11:55 1020 30.12 849 25.07 20.7 69.3 39 6.3 43.4
12:00 1020 30.12 849 25.07 20.3 68.5 40 6.2 43.2
12:05 1019 30.09 849 25.07 20.8 69.4 39 6.5 43.7
12:10 1019 30.09 849 25.07 21.2 70.1 38 6.3 43.4
12:15 1019 30.09 849 25.07 20.7 69.3 38 6 42.9
12:20 1019 30.09 849 25.07 20.7 69.3 36 5.4 41.7
12:25 1019 30.09 849 25.07 21.1 69.9 37 6 42.9
12:30 1019 30.09 849 25.07 20.2 68.4 42 6.9 44.5
12:35 1019 30.09 849 25.07 19.9 67.9 38 5.3 41.5
12:40 1019 30.09 849 25.07 21 69.8 33 4.5 40
12:45 1019 30.09 849 25.07 20.9 69.7 33 4.1 39.3
12:50 1019 30.09 849 25.07 21.1 69.9 35 5.2 41.3
12:55 1019 30.09 849 25.07 21 69.8 34 4.7 40.5
13:00 1019 30.09 849 25.07 21.4 70.5 29 3 37.3
13:05 1019 30.09 849 25.07 21.2 70.1 29 2.4 36.3
13:10 1019 30.09 849 25.07 21.2 70.1 29 2.5 36.6
13:15 1019 30.09 849 25.07 20.6 69.2 30 2.7 36.9
13:20 1019 30.09 849 25.07 21.1 69.9 30 3 37.3
13:25 1019 30.09 848 25.04 21.7 71.1 29 3.2 37.7
13:30 1019 30.09 848 25.04 22.2 71.9 29 3.7 38.7
13:35 1019 30.09 848 25.04 21.8 71.3 30 3.9 38.9
13:40 1019 30.09 848 25.04 22.2 71.9 30 4 39.1
13:45 1019 30.09 848 25.04 22.5 72.4 29 3.7 38.7
13:50 1019 30.09 848 25.04 22.6 72.6 30 4.1 39.4
13:55 1019 30.09 848 25.04 22.2 71.9 32 4.8 40.6
14:00 1019 30.09 848 25.04 22.4 72.3 31 4.8 40.6
14:05 1019 30.09 848 25.04 22.6 72.7 32 5.4 41.8
14:10 1019 30.09 848 25.04 22.2 72 32 5 41
14:15 1019 30.09 848 25.04 22.7 72.8 30 4.6 40.3
14:20 1019 30.09 848 25.04 22.1 71.9 31 4.2 39.6
14:25 1019 30.09 848 25.04 23.1 73.5 29 4.4 40
14:30 1019 30.09 848 25.04 23.3 73.9 29 4.7 40.5
14:35 1019 30.09 848 25.04 23.7 74.6 29 4.9 40.8
14:40 1019 30.09 848 25.04 23 73.4 28 3.9 39
14:45 1019 30.09 848 25.04 22.5 72.6 30 4.2 39.6
14:50 1019 30.09 848 25.04 22.4 72.3 30 4.4 39.9
14:55 1019 30.09 848 25.04 22 71.6 31 4.2 39.5
15:00 1019 30.09 848 25.04 21.9 71.4 31 4.1 39.3
15:05 1019 30.09 848 25.04 22.6 72.7 28 3.6 38.4
15:10 1019 30.09 848 25.04 23 73.4 28 3.8 38.9
15:15 1019 30.09 848 25.04 22.4 72.3 29 3.9 39
15:20 1019 30.09 848 25.04 23.3 74 27 3.6 38.4
15:25 1019 30.09 848 25.04 23.8 74.8 28 4.3 39.7
15:30 1019 30.09 848 25.04 23.4 74.2 27 3.6 38.4
15:35 1019 30.09 848 25.04 23.3 73.9 27 3.4 38.1
15:40 1019 30.09 848 25.04 22.9 73.2 28 3.6 38.4
15:45 1019 30.09 848 25.04 22.7 72.8 26 2.7 36.8
15:50 1019 30.09 848 25.04 23.4 74.1 28 4.1 39.4
15:55 1019 30.09 848 25.04 23.9 75.1 26 3.6 38.4
16:00 1019 30.09 848 25.04 23.6 74.4 25 2.8 37.1
16:05 1019 30.09 848 25.04 23.6 74.5 25 2.8 37.1
16:10 1019 30.09 848 25.04 23.6 74.5 26 3 37.4
16:15 1019 30.09 848 25.04 23.8 74.8 24 2.2 36
16:20 1019 30.09 848 25.04 23.7 74.7 24 2.3 36.1
16:25 1019 30.09 848 25.04 23.4 74.2 25 2.6 36.7
16:30 1019 30.09 848 25.04 23.3 73.9 25 2.4 36.4
16:35 1019 30.09 848 25.04 23.8 74.8 25 2.9 37.2
16:40 1019 30.09 848 25.04 24.2 75.6 24 2.9 37.2
16:45 1019 30.09 848 25.04 24.1 75.5 24 2.7 36.9
16:50 1019 30.09 848 25.04 23.9 75.1 25 2.9 37.2
16:55 1019 30.09 848 25.04 23.7 74.7 25 3 37.5
17:00 1019 30.09 848 25.04 23.9 75 26 3.6 38.4
17:05 1018 30.06 848 25.04 24.1 75.4 25 2.8 37.1
17:10 1018 30.06 848 25.04 23.8 74.8 25 2.9 37.2
17:15 1018 30.06 848 25.04 23.7 74.7 27 3.6 38.5
17:20 1018 30.06 848 25.04 23.6 74.5 25 2.5 36.4
17:25 1018 30.06 847 25.01 23.8 74.8 24 2.4 36.4
17:30 1018 30.06 847 25.01 23.8 74.8 24 2.5 36.5
17:35 1018 30.06 847 25.01 23.5 74.3 24 2.2 36
17:40 1018 30.06 847 25.01 24 75.2 24 2.1 35.8
17:45 1018 30.06 847 25.01 24 75.2 23 2 35.6
17:50 1018 30.06 847 25.01 23.8 74.8 23 1.9 35.4
17:55 1018 30.06 847 25.01 24.1 75.3 23 2.2 35.9
18:00 1018 30.06 847 25.01 24.2 75.5 23 2.3 36.1
18:05 1018 30.06 847 25.01 24.3 75.7 24 2.6 36.6
18:10 1018 30.06 847 25.01 24.1 75.4 24 2.4 36.4
18:15 1018 30.06 847 25.01 23.9 75.1 24 2.6 36.7
18:20 1018 30.06 847 25.01 24.1 75.4 24 2.6 36.6
18:25 1018 30.06 847 25.01 23.8 74.8 24 2.2 35.9
18:30 1018 30.06 847 25.01 23.3 73.9 23 1.4 34.6
18:35 1018 30.06 847 25.01 23.9 75 24 2.6 36.7
18:40 1018 30.06 847 25.01 23.7 74.7 26 3.3 38
18:45 1018 30.06 847 25.01 23.9 75.1 24 2.3 36.1
18:50 1018 30.06 847 25.01 23.8 74.8 26 3.5 38.2
18:55 1018 30.06 847 25.01 23.8 74.9 25 3 37.5
19:00 1018 30.06 847 25.01 23.8 74.9 26 3.2 37.8
19:05 1018 30.06 847 25.01 23.7 74.7 26 3.2 37.7
19:10 1018 30.06 847 25.01 23.7 74.7 25 2.9 37.3
19:15 1018 30.06 847 25.01 23.6 74.5 26 3 37.5
19:20 1018 30.06 847 25.01 23.8 74.8 24 2.3 36.1
19:25 1018 30.06 847 25.01 23.8 74.9 24 2 35.7
19:30 1018 30.06 847 25.01 23.6 74.5 26 3.3 37.9
19:35 1018 30.06 847 25.01 23.1 73.6 27 3.2 37.7
19:40 1018 30.06 847 25.01 22.7 72.8 28 3.2 37.7
19:45 1018 30.06 847 25.01 22.5 72.6 30 4.3 39.8
19:50 1018 30.06 847 25.01 22.5 72.4 32 5.3 41.5
19:55 1018 30.06 847 25.01 22.1 71.8 30 3.9 39
20:00 1018 30.06 847 25.01 22.1 71.9 30 4.1 39.3
20:05 1018 30.06 847 25.01 22.1 71.7 32 4.8 40.6
20:10 1018 30.06 847 25.01 21.8 71.3 34 5.3 41.5
20:15 1018 30.06 847 25.01 21.8 71.2 34 5.3 41.5
20:20 1018 30.06 847 25.01 21.6 70.9 32 4.5 40.2
20:25 1018 30.06 847 25.01 21.6 70.9 33 4.7 40.5
20:30 1018 30.06 847 25.01 21.5 70.7 34 5.2 41.3
20:35 1018 30.06 847 25.01 21.3 70.4 35 5.4 41.7
20:40 1018 30.06 847 25.01 20.9 69.7 40 7 44.6
20:45 1018 30.06 847 25.01 20.5 69 40 6.5 43.6
20:50 1018 30.06 847 25.01 20.4 68.6 39 6 42.8
20:55 1018 30.06 847 25.01 20.1 68.1 39 5.7 42.2
21:00 1018 30.06 847 25.01 19.8 67.6 39 5.6 42
21:05 1018 30.06 847 25.01 19.6 67.3 39 5.5 41.9
21:10 1018 30.06 847 25.01 19.3 66.7 40 5.4 41.8
21:15 1018 30.06 847 25.01 19.3 66.7 37 4.5 40.1
21:20 1018 30.06 847 25.01 19.2 66.5 37 4.5 40
21:25 1018 30.06 847 25.01 18.9 66.1 39 4.7 40.5
21:30 1018 30.06 847 25.01 18.6 65.4 41 5.2 41.3
21:35 1018 30.06 847 25.01 18.3 64.9 40 4.5 40.1
21:40 1018 30.06 847 25.01 18.2 64.8 38 3.8 38.8
21:45 1018 30.06 847 25.01 18.2 64.7 39 4 39.1
21:50 1018 30.06 847 25.01 18.1 64.5 40 4.4 39.9
21:55 1018 30.06 847 25.01 17.6 63.6 44 5.2 41.4
22:00 1018 30.06 848 25.04 17.2 62.9 39 3.1 37.7
22:05 1018 30.06 848 25.04 17.8 64 36 2.5 36.6
22:10 1018 30.06 848 25.04 17.9 64.2 37 3 37.4
22:15 1019 30.09 848 25.04 17.6 63.7 40 4.1 39.3
22:20 1019 30.09 848 25.04 17 62.6 41 3.8 38.9
22:25 1019 30.09 848 25.04 16.6 61.8 42 3.7 38.7
22:30 1019 30.09 848 25.04 16.3 61.4 41 3.1 37.5
22:35 1019 30.09 848 25.04 17 62.6 37 2.2 36
22:40 1019 30.09 848 25.04 17.2 63 38 2.9 37.2
22:45 1019 30.09 848 25.04 16.8 62.2 42 3.9 39.1
22:50 1019 30.09 848 25.04 16.2 61.2 44 4.1 39.5
22:55 1019 30.09 848 25.04 16 60.7 43 3.6 38.4
23:00 1019 30.09 848 25.04 16 60.8 43 3.6 38.5
23:05 1019 30.09 848 25.04 16 60.8 41 2.9 37.1
23:10 1019 30.09 848 25.04 16.4 61.5 39 2.3 36.2
23:15 1019 30.09 848 25.04 16.6 61.8 41 3.5 38.4
23:20 1019 30.09 848 25.04 15.9 60.7 47 4.7 40.4
23:25 1019 30.09 848 25.04 15.2 59.3 48 4.4 39.9
23:30 1019 30.09 848 25.04 15.3 59.6 44 3.2 37.8
23:35 1019 30.09 848 25.04 15.7 60.3 43 3.4 38
23:40 1019 30.09 848 25.04 16.1 61.1 44 3.9 38.9
23:45 1019 30.09 848 25.04 16.1 61 43 3.5 38.3
23:50 1019 30.09 848 25.04 16 60.8 44 3.7 38.7
23:55 1019 30.09 848 25.04 15.8 60.5 46 4.3 39.8
24:00 1019 30.09 848 25.04 15.4 59.7 50 5.2 41.4